Sommer S — WDG3830 — position and weather

sailwx.info

Track history (hours):
 
Tides and Currents Weather Stations Pressure Air Temp Water Temp Dewpoint Dewpoint Depression Visibility Wind Speed Wind Dir Waves Ship Positions

Sommer S

More information available from US FCC via Universal Licensing System and Coast Guard Vessel Documentation Center.

Last reported at 2014-Sep-19 02:30 UTC. Time now 2014-Sep-19 11:47 UTC.
Position N 45°38' W 122°43'.

Length 25 m.

Type: Tug. MMSI: 367530080.

Date/timePositionNaut miles runAvg speedWind from/ knotsBaromVisibWave heightAir tempDewpointWater temp
2014-Sep-19 02:30N 45°38' W 122°43'  
2014-Sep-13 21:15N 46°16' W 123°29'811.3
2014-Sep-13 20:34N 46°15' W 123°40'1010.2
2014-Sep-13 19:34N 46°11' W 123°54'7 7.2
2014-Sep-13 18:34N 46°14' W 123°44'56 6.6
2014-Sep-13 10:05N 45°38' W 122°42'1 0.2
2014-Sep-13 02:20N 45°37' W 122°40'1 1.8
2014-Sep-13 01:33N 45°37' W 122°39'4 0.1
2014-Sep-11 23:22N 45°38' W 122°44'1 0.4
2014-Sep-11 22:04N 45°38' W 122°43'0 0.0
2014-Sep-11 21:29N 45°38' W 122°43'2 0.0
2014-Sep-10 13:28N 45°39' W 122°45'0 0.0
2014-Sep-10 12:33N 45°39' W 122°45'2 0.2
2014-Sep-10 02:14N 45°38' W 122°43'  
Track history (hours):
 
Tides and Currents Weather Stations Pressure Air Temp Water Temp Dewpoint Dewpoint Depression Visibility Wind Speed Wind Dir Waves Ship Positions

Sommer S

More information available from US FCC via Universal Licensing System and Coast Guard Vessel Documentation Center.

Last reported at 2014-Sep-19 02:30 UTC. Time now 2014-Sep-19 11:47 UTC.
Position N 45°38' W 122°43'.

Length 25 m.

Type: Tug. MMSI: 367530080.

Date/timePositionNaut miles runAvg speedWind from/ knotsBaromVisibWave heightAir tempDewpointWater temp
2014-Sep-19 02:30N 45°38' W 122°43'  
2014-Sep-13 21:15N 46°16' W 123°29'811.3
2014-Sep-13 20:34N 46°15' W 123°40'1010.2
2014-Sep-13 19:34N 46°11' W 123°54'7 7.2
2014-Sep-13 18:34N 46°14' W 123°44'56 6.6
2014-Sep-13 10:05N 45°38' W 122°42'1 0.2
2014-Sep-13 02:20N 45°37' W 122°40'1 1.8
2014-Sep-13 01:33N 45°37' W 122°39'4 0.1
2014-Sep-11 23:22N 45°38' W 122°44'1 0.4
2014-Sep-11 22:04N 45°38' W 122°43'0 0.0
2014-Sep-11 21:29N 45°38' W 122°43'2 0.0
2014-Sep-10 13:28N 45°39' W 122°45'0 0.0
2014-Sep-10 12:33N 45°39' W 122°45'2 0.2
2014-Sep-10 02:14N 45°38' W 122°43'  

Dump ship's entire track history